createdAt,value
2019-01-16T00:02:27.427Z,7.10
2019-01-16T00:06:30.923Z,7.10
2019-01-16T00:10:34.756Z,7.10
2019-01-16T00:14:38.182Z,7.10
2019-01-16T00:18:41.632Z,7.10
2019-01-16T00:22:45.102Z,7.10
2019-01-16T00:26:48.556Z,7.10
2019-01-16T00:30:52.068Z,7.10
2019-01-16T00:34:55.540Z,7.10
2019-01-16T00:38:58.993Z,7.10
2019-01-16T00:43:02.481Z,7.00
2019-01-16T00:46:46.888Z,7.00
2019-01-16T00:50:42.564Z,7.00
2019-01-16T00:54:46.035Z,7.00
2019-01-16T01:02:56.460Z,7.00
2019-01-16T01:06:59.963Z,7.00
2019-01-16T01:11:03.503Z,7.00
2019-01-16T01:15:06.967Z,7.00
2019-01-16T01:19:10.426Z,7.00
2019-01-16T01:23:13.966Z,6.90
2019-01-16T01:27:17.450Z,7.00
2019-01-16T01:35:09.747Z,6.90
2019-01-16T01:39:13.152Z,6.90
2019-01-16T01:43:16.625Z,6.90
2019-01-16T01:47:20.478Z,6.90
2019-01-16T01:51:23.882Z,6.90
2019-01-16T01:55:27.743Z,6.90
2019-01-16T01:59:31.532Z,6.80
2019-01-16T02:03:35.013Z,6.80
2019-01-16T02:07:31.891Z,6.80
2019-01-16T02:11:35.413Z,6.80
2019-01-16T02:15:39.156Z,6.80
2019-01-16T02:19:42.594Z,6.80
2019-01-16T02:23:46.034Z,6.80
2019-01-16T02:27:49.475Z,6.80
2019-01-16T02:31:52.893Z,6.70
2019-01-16T02:35:48.710Z,6.80
2019-01-16T02:39:43.973Z,7.00
2019-01-16T02:43:47.443Z,6.80
2019-01-16T02:47:50.923Z,6.80
2019-01-16T02:51:54.385Z,6.70
2019-01-16T02:55:57.851Z,6.70
2019-01-16T03:00:01.289Z,6.80
2019-01-16T03:08:15.003Z,6.60
2019-01-16T03:12:18.473Z,6.50
2019-01-16T03:16:21.910Z,6.40
2019-01-16T03:20:25.635Z,6.20
2019-01-16T03:24:29.386Z,6.10
2019-01-16T03:28:33.099Z,6.10
2019-01-16T03:32:36.562Z,6.10
2019-01-16T03:36:32.571Z,6.10
2019-01-16T03:40:36.031Z,6.10
2019-01-16T03:44:39.579Z,6.10
2019-01-16T03:48:43.340Z,6.10
2019-01-16T03:52:47.010Z,6.10
2019-01-16T03:56:50.450Z,6.10
2019-01-16T04:00:53.945Z,6.00
2019-01-16T04:04:57.686Z,6.00
2019-01-16T04:09:01.134Z,6.00
2019-01-16T04:13:04.876Z,6.00
2019-01-16T04:17:08.322Z,6.10
2019-01-16T04:21:11.800Z,6.10
2019-01-16T04:25:15.314Z,6.10
2019-01-16T04:29:18.795Z,6.20
2019-01-16T04:33:22.224Z,6.20
2019-01-16T04:37:18.787Z,6.20
2019-01-16T04:41:22.224Z,6.30
2019-01-16T04:45:06.595Z,6.30
2019-01-16T04:49:10.027Z,6.40
2019-01-16T04:53:13.503Z,6.40
2019-01-16T05:01:19.958Z,6.50
2019-01-16T05:09:26.902Z,6.60
2019-01-16T05:13:30.336Z,6.70
2019-01-16T05:17:33.795Z,6.70
2019-01-16T05:21:37.510Z,6.80
2019-01-16T05:25:40.999Z,6.70
2019-01-16T05:29:44.457Z,6.70
2019-01-16T05:33:40.916Z,6.60
2019-01-16T05:37:44.347Z,6.50
2019-01-16T05:41:47.794Z,6.50
2019-01-16T05:45:51.254Z,6.50
2019-01-16T05:49:54.712Z,6.50
2019-01-16T05:54:00.963Z,6.50
2019-01-16T05:58:04.811Z,6.60
2019-01-16T06:02:08.263Z,6.50
2019-01-16T06:10:13.631Z,6.60
2019-01-16T06:13:58.048Z,6.60
2019-01-16T06:18:01.516Z,6.70
2019-01-16T06:22:04.970Z,6.70
2019-01-16T06:26:08.413Z,6.70
2019-01-16T06:30:11.856Z,6.80
2019-01-16T06:34:08.372Z,6.80
2019-01-16T06:38:06.463Z,6.80
2019-01-16T06:42:09.952Z,6.80
2019-01-16T06:46:13.412Z,6.80
2019-01-16T06:50:16.895Z,6.80
2019-01-16T06:54:09.155Z,6.80
2019-01-16T06:58:12.847Z,6.80
2019-01-16T07:02:16.356Z,6.80
2019-01-16T07:06:20.128Z,6.80
2019-01-16T07:10:24.364Z,6.80
2019-01-16T07:14:27.869Z,6.70
2019-01-16T07:18:31.334Z,6.80
2019-01-16T07:22:34.779Z,6.80
2019-01-16T07:26:38.251Z,6.80
2019-01-16T07:30:33.658Z,6.70
2019-01-16T07:38:33.199Z,6.70
2019-01-16T07:46:21.608Z,6.80
2019-01-16T07:50:26.772Z,6.80
2019-01-16T07:54:30.248Z,6.80
2019-01-16T07:58:33.697Z,6.80
2019-01-16T08:02:51.041Z,6.70
2019-01-16T08:06:42.382Z,6.70
2019-01-16T08:10:45.841Z,6.80
2019-01-16T08:18:55.071Z,6.80
2019-01-16T08:22:58.532Z,6.70
2019-01-16T08:27:02.043Z,6.70
2019-01-16T08:35:21.146Z,6.80
2019-01-16T08:39:28.469Z,6.80
2019-01-16T08:43:31.939Z,6.70
2019-01-16T08:47:35.342Z,6.80
2019-01-16T08:51:38.828Z,6.80
2019-01-16T08:55:42.325Z,6.80
2019-01-16T08:59:45.761Z,6.80
2019-01-16T09:03:49.254Z,6.80
2019-01-16T09:07:52.763Z,6.80
2019-01-16T09:11:56.493Z,6.80
2019-01-16T09:16:00.325Z,6.80
2019-01-16T09:20:03.770Z,6.80
2019-01-16T09:24:07.507Z,6.80
2019-01-16T09:28:10.985Z,6.80
2019-01-16T09:32:14.436Z,6.80
2019-01-16T09:36:09.091Z,6.80
2019-01-16T09:40:15.525Z,6.80
2019-01-16T09:44:19.019Z,6.80
2019-01-16T09:48:22.794Z,6.80
2019-01-16T09:52:26.834Z,6.80
2019-01-16T09:56:25.295Z,6.80
2019-01-16T10:00:32.033Z,6.70
2019-01-16T10:04:30.715Z,6.80
2019-01-16T10:08:34.166Z,6.90
2019-01-16T10:12:37.608Z,6.80
2019-01-16T10:16:41.090Z,6.80
2019-01-16T10:20:46.321Z,6.80
2019-01-16T10:24:49.776Z,6.80
2019-01-16T10:28:53.209Z,6.80
2019-01-16T10:32:56.662Z,6.80
2019-01-16T10:37:00.113Z,6.80
2019-01-16T10:41:03.564Z,6.80
2019-01-16T10:45:07.048Z,6.70
2019-01-16T10:49:11.011Z,6.80
2019-01-16T10:53:14.460Z,6.90
2019-01-16T10:57:17.937Z,6.90
2019-01-16T11:01:21.627Z,6.80
2019-01-16T11:05:18.114Z,6.80
2019-01-16T11:09:22.100Z,6.90
2019-01-16T11:13:25.600Z,7.00
2019-01-16T11:17:29.035Z,7.00
2019-01-16T11:21:32.482Z,6.90
2019-01-16T11:25:36.254Z,6.90
2019-01-16T11:29:45.269Z,6.90
2019-01-16T11:33:51.004Z,6.80
2019-01-16T11:37:47.956Z,6.80
2019-01-16T11:41:51.479Z,6.80
2019-01-16T11:45:54.948Z,6.80
2019-01-16T11:49:58.444Z,6.90
2019-01-16T11:57:43.776Z,6.80
2019-01-16T12:01:47.270Z,6.90
2019-01-16T12:05:50.725Z,6.80
2019-01-16T12:09:54.266Z,6.80
2019-01-16T12:13:57.873Z,6.80
2019-01-16T12:17:59.630Z,6.70
2019-01-16T12:22:03.358Z,6.70
2019-01-16T12:26:08.277Z,6.80
2019-01-16T12:30:12.099Z,6.80
2019-01-16T12:34:15.531Z,6.70
2019-01-16T12:38:08.021Z,6.70
2019-01-16T12:42:11.493Z,6.60
2019-01-16T12:45:56.112Z,6.60
2019-01-16T12:49:59.960Z,6.60
2019-01-16T12:54:03.456Z,6.60
2019-01-16T12:58:13.379Z,6.60
2019-01-16T13:02:04.862Z,6.50
2019-01-16T13:06:08.344Z,6.50
2019-01-16T13:10:11.820Z,6.50
2019-01-16T13:14:15.317Z,6.50
2019-01-16T13:18:19.058Z,6.50
2019-01-16T13:22:22.524Z,6.50
2019-01-16T13:26:26.171Z,6.60
2019-01-16T13:30:31.262Z,6.50
2019-01-16T13:34:34.726Z,6.60
2019-01-16T13:38:35.960Z,6.60
2019-01-16T13:42:39.506Z,6.60
2019-01-16T13:46:43.084Z,6.60
2019-01-16T13:50:46.863Z,6.60
2019-01-16T13:54:50.440Z,6.60
2019-01-16T13:58:53.956Z,6.60
2019-01-16T14:02:57.468Z,6.60
2019-01-16T14:07:00.949Z,6.60
2019-01-16T14:10:51.420Z,6.70
2019-01-16T14:14:54.966Z,6.60
2019-01-16T14:18:58.461Z,6.70
2019-01-16T14:23:02.196Z,6.70
2019-01-16T14:27:05.910Z,6.70
2019-01-16T14:31:09.414Z,6.70
2019-01-16T14:35:12.908Z,6.80
2019-01-16T14:39:16.420Z,6.70
2019-01-16T14:43:00.838Z,6.60
2019-01-16T14:47:04.292Z,6.50
2019-01-16T14:51:07.743Z,6.50
2019-01-16T14:55:11.287Z,6.50
2019-01-16T14:59:14.732Z,6.40
2019-01-16T15:03:18.236Z,6.40
2019-01-16T15:07:21.736Z,6.40
2019-01-16T15:11:25.212Z,6.50
2019-01-16T15:15:28.659Z,6.50
2019-01-16T15:19:34.447Z,6.40
2019-01-16T15:23:37.924Z,6.40
2019-01-16T15:27:41.379Z,6.40
2019-01-16T15:31:45.082Z,6.40
2019-01-16T15:35:29.386Z,6.30
2019-01-16T15:39:32.993Z,6.30
2019-01-16T15:47:33.703Z,6.30
2019-01-16T15:51:42.270Z,6.30
2019-01-16T15:55:45.852Z,6.20
2019-01-16T15:59:49.302Z,6.20
2019-01-16T16:08:03.456Z,6.00
2019-01-16T16:11:58.420Z,6.00
2019-01-16T16:16:01.873Z,5.90
2019-01-16T16:20:05.308Z,5.90
2019-01-16T16:24:08.717Z,5.80
2019-01-16T16:28:12.244Z,5.80
2019-01-16T16:32:15.687Z,5.70
2019-01-16T16:36:11.397Z,5.70
2019-01-16T16:40:14.886Z,5.60
2019-01-16T16:44:18.299Z,5.50
2019-01-16T16:52:45.938Z,5.50
2019-01-16T16:56:49.386Z,5.50
2019-01-16T17:00:52.919Z,5.50
2019-01-16T17:04:56.387Z,5.50
2019-01-16T17:20:19.568Z,5.60
2019-01-16T17:24:23.010Z,5.60
2019-01-16T17:28:26.470Z,5.60
2019-01-16T17:32:29.929Z,5.60
2019-01-16T17:36:29.478Z,5.60
2019-01-16T17:40:33.005Z,5.70
2019-01-16T17:44:36.464Z,5.70
2019-01-16T17:48:39.913Z,5.70
2019-01-16T17:52:43.318Z,5.70
2019-01-16T17:56:47.051Z,5.70
2019-01-16T18:00:50.534Z,5.70
2019-01-16T18:04:54.021Z,5.70
2019-01-16T18:08:38.665Z,5.70
2019-01-16T18:12:42.148Z,5.70
2019-01-16T18:16:39.788Z,5.70
2019-01-16T18:20:43.282Z,5.70
2019-01-16T18:24:46.714Z,5.70
2019-01-16T18:28:50.184Z,5.70
2019-01-16T18:32:53.765Z,5.80
2019-01-16T18:36:49.388Z,5.70
2019-01-16T18:41:04.411Z,5.80
2019-01-16T18:45:03.455Z,5.80
2019-01-16T18:49:07.289Z,5.80
2019-01-16T18:53:10.823Z,5.80
2019-01-16T18:57:14.272Z,5.90
2019-01-16T19:01:17.743Z,5.90
2019-01-16T19:05:14.272Z,5.90
2019-01-16T19:09:17.724Z,5.90
2019-01-16T19:13:21.161Z,5.90
2019-01-16T19:17:16.241Z,6.00
2019-01-16T19:21:19.710Z,6.00
2019-01-16T19:25:04.120Z,6.00
2019-01-16T19:29:07.541Z,6.10
2019-01-16T19:32:51.920Z,6.10
2019-01-16T19:36:47.615Z,6.10
2019-01-16T19:40:51.089Z,6.10
2019-01-16T19:44:54.601Z,6.10
2019-01-16T19:48:58.062Z,6.10
2019-01-16T19:53:04.784Z,6.00
2019-01-16T19:57:06.703Z,6.10
2019-01-16T20:01:10.167Z,6.00
2019-01-16T20:05:13.751Z,6.00
2019-01-16T20:09:17.200Z,5.90
2019-01-16T20:13:03.805Z,6.00
2019-01-16T20:17:07.296Z,6.00
2019-01-16T20:21:11.169Z,6.00
2019-01-16T20:25:14.783Z,6.00
2019-01-16T20:28:59.204Z,6.00
2019-01-16T20:33:24.939Z,6.00
2019-01-16T20:37:23.156Z,6.00
2019-01-16T20:41:23.949Z,6.00
2019-01-16T20:45:08.721Z,6.00
2019-01-16T20:49:12.263Z,6.00
2019-01-16T20:53:07.053Z,6.00
2019-01-16T20:57:10.812Z,6.00
2019-01-16T21:01:14.348Z,5.90
2019-01-16T21:05:10.452Z,6.00
2019-01-16T21:09:13.883Z,6.00
2019-01-16T21:17:20.330Z,6.00
2019-01-16T21:21:23.819Z,5.90
2019-01-16T21:25:48.424Z,6.00
2019-01-16T21:29:50.424Z,5.90
2019-01-16T21:33:53.878Z,5.90
2019-01-16T21:37:41.462Z,5.90
2019-01-16T21:41:44.943Z,5.90
2019-01-16T21:45:48.389Z,5.90
2019-01-16T21:49:51.830Z,6.00
2019-01-16T21:53:32.390Z,5.90
2019-01-16T22:01:38.774Z,6.00
2019-01-16T22:05:23.400Z,6.00
2019-01-16T22:09:47.859Z,6.00
2019-01-16T22:13:51.273Z,5.90
2019-01-16T22:17:55.021Z,6.10
2019-01-16T22:21:48.884Z,6.10
2019-01-16T22:25:52.446Z,6.10
2019-01-16T22:29:55.954Z,6.20
2019-01-16T22:33:59.977Z,6.20
2019-01-16T22:37:56.511Z,6.20
2019-01-16T22:41:59.958Z,6.20
2019-01-16T22:46:02.062Z,6.20
2019-01-16T22:50:05.824Z,6.20
2019-01-16T22:54:09.297Z,6.20
2019-01-16T22:58:13.409Z,6.30
2019-01-16T23:02:09.149Z,6.20
2019-01-16T23:06:12.657Z,6.30
2019-01-16T23:10:16.182Z,6.20
2019-01-16T23:14:19.666Z,6.10
2019-01-16T23:18:23.132Z,5.90
2019-01-16T23:22:26.637Z,5.60
2019-01-16T23:26:30.461Z,5.40
2019-01-16T23:30:34.566Z,5.30
2019-01-16T23:34:38.031Z,5.30
2019-01-16T23:38:41.499Z,5.20
2019-01-16T23:42:44.931Z,5.20
2019-01-16T23:46:48.459Z,5.20
2019-01-16T23:50:52.553Z,5.30
2019-01-16T23:54:56.008Z,5.30
